createdAt,value
2018-02-10T00:02:04.216Z,39.00
2018-02-10T00:04:31.710Z,39.33
2018-02-10T00:06:59.167Z,38.77
2018-02-10T00:09:26.628Z,39.90
2018-02-10T00:11:54.095Z,40.13
2018-02-10T00:14:21.685Z,37.90
2018-02-10T00:16:49.178Z,39.17
2018-02-10T00:19:16.639Z,39.30
2018-02-10T00:21:44.121Z,40.10
2018-02-10T00:24:11.577Z,38.27
2018-02-10T00:26:39.047Z,38.87
2018-02-10T00:29:06.567Z,40.20
2018-02-10T00:31:34.283Z,40.50
2018-02-10T00:34:01.768Z,39.10
2018-02-10T00:36:29.267Z,40.37
2018-02-10T00:38:56.895Z,38.73
2018-02-10T00:41:24.362Z,40.23
2018-02-10T00:43:51.951Z,38.17
2018-02-10T00:46:19.415Z,38.40
2018-02-10T00:48:47.134Z,41.33
2018-02-10T00:51:14.795Z,39.33
2018-02-10T00:53:42.267Z,40.80
2018-02-10T00:56:09.723Z,40.57
2018-02-10T00:58:37.259Z,41.67
2018-02-10T01:01:04.959Z,44.00
2018-02-10T01:03:32.481Z,45.43
2018-02-10T01:05:59.947Z,46.47
2018-02-10T01:08:27.702Z,45.20
2018-02-10T01:10:55.335Z,42.73
2018-02-10T01:13:22.870Z,39.60
2018-02-10T01:15:50.322Z,40.70
2018-02-10T01:18:17.833Z,44.33
2018-02-10T01:20:45.492Z,42.90
2018-02-10T01:23:13.973Z,42.83
2018-02-10T01:25:41.738Z,44.07
2018-02-10T01:28:09.245Z,45.00
2018-02-10T01:30:36.961Z,44.83
2018-02-10T01:33:04.417Z,43.13
2018-02-10T01:35:31.897Z,40.53
2018-02-10T01:37:59.634Z,41.70
2018-02-10T01:40:27.226Z,41.57
2018-02-10T01:42:54.677Z,40.47
2018-02-10T01:45:23.232Z,40.10
2018-02-10T01:47:50.694Z,40.00
2018-02-10T01:50:21.989Z,38.40
2018-02-10T01:52:49.446Z,38.13
2018-02-10T01:55:16.954Z,40.13
2018-02-10T01:57:44.413Z,38.90
2018-02-10T02:00:11.869Z,40.03
2018-02-10T02:02:39.405Z,39.90
2018-02-10T02:05:06.865Z,37.93
2018-02-10T02:07:34.321Z,38.70
2018-02-10T02:10:02.090Z,40.17
2018-02-10T02:12:29.538Z,41.83
2018-02-10T02:14:57.310Z,40.80
2018-02-10T02:17:25.616Z,40.30
2018-02-10T02:19:53.070Z,40.20
2018-02-10T02:22:20.593Z,40.63
2018-02-10T02:24:48.050Z,40.37
2018-02-10T02:27:15.819Z,38.80
2018-02-10T02:29:43.582Z,40.43
2018-02-10T02:32:11.347Z,38.93
2018-02-10T02:34:38.805Z,38.70
2018-02-10T02:37:06.446Z,38.43
2018-02-10T02:39:33.902Z,38.97
2018-02-10T02:42:01.465Z,38.47
2018-02-10T02:44:28.926Z,38.47
2018-02-10T02:46:56.402Z,37.07
2018-02-10T02:49:24.157Z,38.43
2018-02-10T02:51:51.642Z,38.93
2018-02-10T02:54:19.078Z,40.03
2018-02-10T02:56:46.715Z,40.50
2018-02-10T02:59:14.166Z,40.13
2018-02-10T03:01:41.635Z,40.87
2018-02-10T03:04:09.205Z,41.13
2018-02-10T03:06:36.674Z,40.30
2018-02-10T03:09:04.125Z,38.97
2018-02-10T03:11:31.877Z,39.00
2018-02-10T03:13:59.331Z,40.30
2018-02-10T03:16:26.793Z,38.90
2018-02-10T03:18:54.250Z,38.03
2018-02-10T03:21:21.710Z,39.13
2018-02-10T03:23:49.161Z,37.80
2018-02-10T03:26:16.626Z,38.13
2018-02-10T03:28:44.386Z,38.50
2018-02-10T03:31:12.030Z,37.57
2018-02-10T03:33:39.606Z,40.43
2018-02-10T03:36:07.069Z,39.87
2018-02-10T03:38:34.521Z,39.33
2018-02-10T03:41:02.320Z,37.87
2018-02-10T03:43:30.038Z,38.80
2018-02-10T03:45:57.805Z,37.90
2018-02-10T03:48:25.258Z,39.30
2018-02-10T03:50:53.083Z,40.47
2018-02-10T03:53:20.502Z,39.27
2018-02-10T03:55:47.963Z,38.73
2018-02-10T03:58:15.706Z,38.77
2018-02-10T04:00:43.165Z,38.00
2018-02-10T04:03:10.621Z,37.13
2018-02-10T04:05:38.077Z,38.30
2018-02-10T04:08:05.533Z,39.73
2018-02-10T04:10:32.989Z,38.97
2018-02-10T04:13:00.453Z,38.47
2018-02-10T04:15:28.209Z,37.33
2018-02-10T04:17:55.857Z,38.93
2018-02-10T04:20:23.312Z,39.23
2018-02-10T04:22:50.885Z,38.70
2018-02-10T04:25:18.336Z,39.10
2018-02-10T04:27:45.801Z,37.23
2018-02-10T04:30:13.256Z,38.77
2018-02-10T04:32:40.918Z,39.40
2018-02-10T04:35:08.367Z,39.47
2018-02-10T04:37:36.140Z,38.70
2018-02-10T04:40:03.606Z,38.97
2018-02-10T04:42:31.166Z,39.20
2018-02-10T04:44:58.614Z,37.87
2018-02-10T04:47:26.072Z,39.27
2018-02-10T04:49:53.527Z,38.90
2018-02-10T04:52:20.986Z,40.33
2018-02-10T04:54:48.622Z,39.47
2018-02-10T04:57:16.114Z,37.77
2018-02-10T04:59:43.569Z,41.67
2018-02-10T05:02:11.026Z,38.93
2018-02-10T05:04:38.481Z,38.10
2018-02-10T05:07:05.941Z,39.23
2018-02-10T05:09:33.498Z,39.57
2018-02-10T05:12:00.957Z,37.17
2018-02-10T05:14:28.409Z,38.47
2018-02-10T05:16:56.802Z,37.87
2018-02-10T05:19:24.423Z,39.77
2018-02-10T05:21:52.010Z,38.13
2018-02-10T05:24:19.645Z,39.53
2018-02-10T05:26:47.129Z,38.00
2018-02-10T05:29:14.585Z,38.33
2018-02-10T05:31:42.049Z,37.93
2018-02-10T05:34:09.589Z,38.13
2018-02-10T05:36:37.062Z,39.33
2018-02-10T05:39:04.823Z,38.70
2018-02-10T05:41:32.458Z,38.20
2018-02-10T05:44:00.045Z,38.40
2018-02-10T05:46:27.501Z,37.93
2018-02-10T05:48:55.165Z,39.03
2018-02-10T05:51:22.723Z,38.37
2018-02-10T05:53:50.185Z,37.37
2018-02-10T05:56:17.639Z,38.20
2018-02-10T05:58:45.094Z,39.10
2018-02-10T06:01:12.828Z,38.03
2018-02-10T06:03:40.597Z,37.63
2018-02-10T06:06:08.333Z,37.53
2018-02-10T06:08:35.817Z,37.63
2018-02-10T06:11:03.281Z,38.93
2018-02-10T06:13:30.755Z,38.47
2018-02-10T06:15:58.525Z,38.10
2018-02-10T06:18:26.267Z,37.60
2018-02-10T06:20:53.717Z,39.40
2018-02-10T06:23:21.202Z,39.40
2018-02-10T06:25:48.942Z,38.30
2018-02-10T06:28:16.409Z,38.30
2018-02-10T06:30:43.869Z,38.60
2018-02-10T06:33:11.617Z,38.90
2018-02-10T06:35:39.073Z,38.87
2018-02-10T06:38:06.765Z,39.27
2018-02-10T06:40:34.222Z,38.70
2018-02-10T06:43:01.680Z,39.73
2018-02-10T06:45:29.133Z,38.13
2018-02-10T06:47:56.593Z,38.50
2018-02-10T06:50:24.053Z,38.17
2018-02-10T06:52:51.508Z,37.37
2018-02-10T06:55:18.962Z,38.97
2018-02-10T06:57:46.422Z,38.87
2018-02-10T07:00:13.953Z,37.90
2018-02-10T07:02:41.713Z,38.43
2018-02-10T07:05:09.173Z,37.40
2018-02-10T07:07:36.630Z,36.77
2018-02-10T07:10:04.113Z,37.40
2018-02-10T07:12:31.553Z,37.43
2018-02-10T07:14:59.173Z,38.10
2018-02-10T07:17:26.634Z,38.93
2018-02-10T07:19:54.209Z,38.47
2018-02-10T07:22:21.677Z,39.80
2018-02-10T07:24:49.313Z,37.57
2018-02-10T07:27:16.789Z,38.53
2018-02-10T07:29:44.254Z,37.87
2018-02-10T07:32:11.701Z,38.60
2018-02-10T07:34:39.158Z,38.90
2018-02-10T07:37:06.715Z,39.23
2018-02-10T07:39:34.471Z,38.43
2018-02-10T07:42:01.936Z,39.17
2018-02-10T07:44:29.408Z,39.03
2018-02-10T07:46:56.849Z,38.30
2018-02-10T07:49:24.318Z,39.07
2018-02-10T07:51:51.969Z,37.20
2018-02-10T07:54:19.446Z,39.00
2018-02-10T07:56:46.977Z,39.10
2018-02-10T07:59:14.476Z,38.73
2018-02-10T08:01:41.926Z,38.40
2018-02-10T08:04:09.822Z,38.33
2018-02-10T08:06:37.373Z,37.50
2018-02-10T08:09:04.834Z,40.20
2018-02-10T08:11:32.311Z,40.13
2018-02-10T08:14:00.414Z,37.77
2018-02-10T08:16:27.889Z,37.90
2018-02-10T08:18:55.538Z,37.53
2018-02-10T08:21:22.998Z,37.30
2018-02-10T08:23:50.457Z,37.97
2018-02-10T08:26:17.914Z,39.27
2018-02-10T08:28:45.366Z,38.23
2018-02-10T08:31:12.941Z,38.03
2018-02-10T08:33:40.389Z,37.40
2018-02-10T08:36:08.138Z,37.80
2018-02-10T08:38:35.833Z,38.27
2018-02-10T08:41:03.284Z,38.77
2018-02-10T08:43:30.810Z,39.37
2018-02-10T08:45:58.521Z,38.57
2018-02-10T08:48:25.931Z,38.17
2018-02-10T08:50:53.389Z,38.13
2018-02-10T08:53:20.895Z,38.77
2018-02-10T08:55:49.104Z,40.03
2018-02-10T08:58:16.781Z,38.27
2018-02-10T09:00:44.238Z,40.10
2018-02-10T09:03:11.862Z,40.33
2018-02-10T09:05:39.306Z,38.70
2018-02-10T09:08:06.914Z,40.50
2018-02-10T09:10:34.375Z,38.50
2018-02-10T09:13:01.833Z,38.83
2018-02-10T09:15:29.293Z,40.67
2018-02-10T09:17:56.895Z,40.50
2018-02-10T09:20:24.381Z,41.10
2018-02-10T09:22:51.834Z,38.30
2018-02-10T09:25:19.289Z,39.80
2018-02-10T09:27:46.789Z,39.87
2018-02-10T09:30:14.326Z,40.37
2018-02-10T09:32:42.733Z,39.80
2018-02-10T09:35:10.410Z,39.00
2018-02-10T09:37:37.906Z,39.20
2018-02-10T09:40:05.361Z,41.00
2018-02-10T09:42:32.832Z,40.03
2018-02-10T09:45:00.321Z,41.63
2018-02-10T09:47:27.790Z,40.20
2018-02-10T09:49:55.538Z,39.17
2018-02-10T09:52:22.982Z,39.90
2018-02-10T09:54:50.734Z,39.07
2018-02-10T09:57:18.211Z,40.30
2018-02-10T09:59:45.679Z,40.73
2018-02-10T10:02:13.137Z,39.13
2018-02-10T10:04:40.857Z,39.77
2018-02-10T10:07:08.313Z,39.73
2018-02-10T10:09:35.782Z,39.33
2018-02-10T10:12:03.239Z,41.37
2018-02-10T10:14:30.886Z,41.80
2018-02-10T10:16:58.365Z,40.43
2018-02-10T10:19:25.843Z,38.80
2018-02-10T10:21:53.324Z,37.20
2018-02-10T10:24:20.790Z,38.30
2018-02-10T10:26:48.265Z,36.30
2018-02-10T10:29:15.754Z,35.33
2018-02-10T10:31:43.224Z,36.83
2018-02-10T10:34:10.773Z,35.60
2018-02-10T10:36:39.006Z,34.77
2018-02-10T10:39:07.385Z,34.47
2018-02-10T10:41:34.842Z,35.10
2018-02-10T10:44:02.310Z,34.83
2018-02-10T10:46:29.784Z,32.60
2018-02-10T10:48:57.240Z,33.10
2018-02-10T10:51:24.994Z,32.30
2018-02-10T10:53:52.753Z,33.20
2018-02-10T10:56:20.238Z,31.80
2018-02-10T10:58:47.997Z,31.67
2018-02-10T11:01:15.464Z,29.10
2018-02-10T11:03:42.908Z,29.73
2018-02-10T11:06:10.378Z,31.10
2018-02-10T11:08:37.854Z,28.90
2018-02-10T11:11:05.324Z,28.10
2018-02-10T11:13:32.774Z,29.00
2018-02-10T11:16:00.588Z,29.77
2018-02-10T11:18:28.029Z,28.90
2018-02-10T11:20:55.490Z,28.17
2018-02-10T11:23:22.960Z,28.07
2018-02-10T11:25:50.469Z,28.40
2018-02-10T11:28:17.947Z,26.60
2018-02-10T11:30:45.444Z,26.50
2018-02-10T11:33:13.679Z,27.77
2018-02-10T11:35:41.138Z,27.80
2018-02-10T11:38:08.620Z,27.30
2018-02-10T11:40:36.074Z,28.13
2018-02-10T11:43:04.358Z,26.43
2018-02-10T11:45:32.897Z,27.93
2018-02-10T11:48:00.365Z,28.40
2018-02-10T11:50:27.817Z,27.90
2018-02-10T11:52:55.402Z,28.73
2018-02-10T11:55:22.866Z,27.07
2018-02-10T11:57:50.353Z,26.97
2018-02-10T12:00:18.109Z,27.33
2018-02-10T12:02:45.918Z,27.67
2018-02-10T12:05:13.517Z,27.83
2018-02-10T12:07:41.767Z,28.13
2018-02-10T12:10:09.362Z,27.07
2018-02-10T12:12:36.822Z,27.93
2018-02-10T12:15:04.357Z,26.33
2018-02-10T12:17:31.828Z,27.30
2018-02-10T12:19:59.333Z,26.47
2018-02-10T12:22:27.035Z,27.43
2018-02-10T12:24:54.812Z,26.80
2018-02-10T12:27:22.281Z,25.07
2018-02-10T12:29:49.893Z,25.57
2018-02-10T12:32:17.490Z,26.07
2018-02-10T12:34:44.933Z,26.00
2018-02-10T12:37:12.702Z,24.60
2018-02-10T12:39:40.166Z,24.10
2018-02-10T12:42:07.801Z,22.87
2018-02-10T12:44:35.391Z,22.47
2018-02-10T12:47:03.018Z,21.60
2018-02-10T12:49:30.474Z,22.80
2018-02-10T12:51:57.937Z,21.20
2018-02-10T12:54:25.397Z,20.43
2018-02-10T12:56:52.861Z,18.77
2018-02-10T12:59:20.309Z,19.13
2018-02-10T13:01:47.842Z,19.20
2018-02-10T13:04:15.302Z,18.87
2018-02-10T13:06:42.757Z,19.63
2018-02-10T13:09:10.242Z,19.47
2018-02-10T13:11:37.698Z,20.23
2018-02-10T13:14:05.345Z,18.87
2018-02-10T13:16:32.917Z,19.17
2018-02-10T13:19:00.566Z,20.20
2018-02-10T13:21:28.045Z,20.10
2018-02-10T13:23:55.597Z,20.40
2018-02-10T13:26:23.057Z,19.53
2018-02-10T13:28:50.585Z,20.07
2018-02-10T13:31:18.038Z,19.90
2018-02-10T13:33:45.738Z,19.90
2018-02-10T13:36:13.193Z,20.13
2018-02-10T13:38:40.693Z,19.33
2018-02-10T13:41:08.319Z,19.97
2018-02-10T13:43:35.870Z,20.73
2018-02-10T13:46:03.365Z,19.93
2018-02-10T13:48:38.637Z,19.63
2018-02-10T13:51:06.131Z,21.47
2018-02-10T13:53:33.589Z,21.30
2018-02-10T13:56:01.139Z,19.80
2018-02-10T13:58:28.609Z,20.00
2018-02-10T14:00:56.072Z,19.87
2018-02-10T14:03:24.734Z,18.93
2018-02-10T14:05:52.189Z,19.53
2018-02-10T14:08:19.953Z,19.60
2018-02-10T14:10:47.726Z,20.00
2018-02-10T14:13:15.470Z,19.63
2018-02-10T14:15:42.941Z,20.23
2018-02-10T14:18:10.405Z,19.77
2018-02-10T14:20:38.083Z,20.20
2018-02-10T14:23:05.621Z,20.07
2018-02-10T14:25:33.253Z,20.30
2018-02-10T14:28:00.779Z,19.73
2018-02-10T14:30:28.222Z,20.37
2018-02-10T14:32:55.693Z,20.30
2018-02-10T14:35:23.220Z,19.67
2018-02-10T14:37:50.970Z,20.57
2018-02-10T14:40:18.731Z,20.27
2018-02-10T14:42:46.194Z,19.70
2018-02-10T14:45:13.957Z,19.80
2018-02-10T14:47:41.688Z,19.10
2018-02-10T14:50:09.145Z,18.80
2018-02-10T14:52:36.606Z,18.60
2018-02-10T14:55:04.069Z,19.03
2018-02-10T14:57:31.708Z,19.77
2018-02-10T14:59:59.329Z,18.43
2018-02-10T15:02:27.074Z,20.13
2018-02-10T15:04:54.539Z,19.10
2018-02-10T15:07:21.990Z,19.50
2018-02-10T15:09:49.630Z,19.57
2018-02-10T15:12:17.081Z,19.77
2018-02-10T15:14:44.586Z,19.40
2018-02-10T15:17:12.122Z,19.90
2018-02-10T15:19:39.578Z,19.10
2018-02-10T15:22:07.341Z,20.10
2018-02-10T15:24:34.802Z,20.67
2018-02-10T15:27:02.438Z,19.60
2018-02-10T15:29:41.647Z,19.77
2018-02-10T15:32:20.983Z,19.73
2018-02-10T15:34:58.300Z,19.13
2018-02-10T15:37:25.861Z,20.40
2018-02-10T15:39:53.325Z,76.57
2018-02-10T15:42:20.790Z,24.57
2018-02-10T15:44:48.257Z,19.57
2018-02-10T15:47:15.706Z,19.00
2018-02-10T15:49:43.174Z,19.07
2018-02-10T15:52:10.916Z,18.37
2018-02-10T15:54:38.680Z,20.27
2018-02-10T15:57:06.233Z,21.10
2018-02-10T15:59:33.809Z,20.97
2018-02-10T16:02:02.280Z,19.67
2018-02-10T16:04:29.827Z,19.57
2018-02-10T16:06:57.323Z,19.43
2018-02-10T16:09:25.676Z,19.47
2018-02-10T16:11:53.211Z,19.13
2018-02-10T16:14:20.835Z,19.33
2018-02-10T16:16:49.066Z,20.10
2018-02-10T16:19:17.189Z,18.73
2018-02-10T16:21:45.538Z,18.40
2018-02-10T16:24:13.121Z,21.23
2018-02-10T16:26:40.656Z,18.63
2018-02-10T16:29:09.567Z,19.03
2018-02-10T16:31:37.246Z,19.50
2018-02-10T16:34:04.863Z,18.57
2018-02-10T16:36:33.241Z,17.90
2018-02-10T16:39:00.843Z,18.77
2018-02-10T16:41:28.421Z,18.07
2018-02-10T16:43:55.936Z,19.87
2018-02-10T16:46:24.170Z,19.47
2018-02-10T16:48:51.719Z,22.90
2018-02-10T16:51:19.332Z,19.10
2018-02-10T16:53:47.814Z,18.90
2018-02-10T16:56:15.382Z,15.73
2018-02-10T16:58:42.875Z,16.90
2018-02-10T17:01:10.374Z,17.50
2018-02-10T17:03:38.675Z,19.87
2018-02-10T17:06:06.207Z,21.93
2018-02-10T17:08:34.638Z,17.43
2018-02-10T17:11:02.172Z,16.63
2018-02-10T17:13:29.732Z,15.90
2018-02-10T17:15:57.261Z,14.70
2018-02-10T17:18:24.972Z,16.10
2018-02-10T17:20:53.423Z,15.23
2018-02-10T17:23:20.958Z,16.60
2018-02-10T17:25:48.492Z,16.27
2018-02-10T17:28:15.996Z,16.17
2018-02-10T17:30:44.309Z,17.33
2018-02-10T17:33:11.849Z,15.63
2018-02-10T17:35:39.357Z,17.33
2018-02-10T17:38:08.557Z,17.10
2018-02-10T17:40:36.127Z,17.20
2018-02-10T17:43:03.609Z,15.50
2018-02-10T17:45:31.235Z,16.93
2018-02-10T17:47:58.736Z,17.63
2018-02-10T17:50:26.630Z,17.70
2018-02-10T17:52:54.136Z,16.90
2018-02-10T17:55:21.661Z,17.83
2018-02-10T17:57:54.983Z,16.53
2018-02-10T18:00:23.218Z,17.17
2018-02-10T18:02:50.729Z,16.70
2018-02-10T18:05:18.303Z,17.87
2018-02-10T18:07:45.872Z,19.27
2018-02-10T18:10:13.385Z,18.43
2018-02-10T18:12:40.927Z,16.97
2018-02-10T18:15:08.428Z,18.63
2018-02-10T18:17:36.009Z,18.80
2018-02-10T18:20:04.086Z,17.03
2018-02-10T18:22:31.579Z,18.47
2018-02-10T18:24:59.139Z,21.00
2018-02-10T18:27:26.751Z,17.40
2018-02-10T18:29:54.356Z,18.17
2018-02-10T18:32:21.972Z,18.60
2018-02-10T18:34:49.436Z,18.10
2018-02-10T18:37:16.987Z,16.17
2018-02-10T18:39:44.482Z,16.30
2018-02-10T18:42:12.835Z,17.23
2018-02-10T18:44:40.400Z,19.20
2018-02-10T18:47:07.879Z,16.77
2018-02-10T18:49:35.371Z,16.17
2018-02-10T18:52:02.930Z,16.53
2018-02-10T18:54:30.478Z,15.67
2018-02-10T18:56:58.793Z,15.93
2018-02-10T18:59:26.337Z,15.00
2018-02-10T19:01:54.629Z,21.47
2018-02-10T19:04:22.236Z,18.53
2018-02-10T19:06:50.375Z,16.17
2018-02-10T19:09:17.920Z,15.90
2018-02-10T19:11:45.438Z,15.17
2018-02-10T19:14:13.022Z,16.03
2018-02-10T19:16:40.631Z,16.00
2018-02-10T19:19:08.142Z,16.03
2018-02-10T19:21:36.475Z,16.00
2018-02-10T19:24:04.093Z,15.97
2018-02-10T19:26:32.627Z,16.87
2018-02-10T19:29:00.194Z,15.57
2018-02-10T19:31:27.776Z,15.70
2018-02-10T19:33:55.411Z,15.10
2018-02-10T19:36:22.951Z,15.80
2018-02-10T19:38:50.474Z,15.57
2018-02-10T19:41:18.976Z,15.47
2018-02-10T19:43:46.463Z,14.87
2018-02-10T19:46:14.826Z,15.57
2018-02-10T19:48:42.369Z,15.07
2018-02-10T19:51:09.865Z,14.83
2018-02-10T19:53:37.431Z,14.77
2018-02-10T19:56:05.822Z,14.47
2018-02-10T19:58:34.790Z,14.53
2018-02-10T20:01:02.364Z,14.30
2018-02-10T20:03:30.643Z,14.80
2018-02-10T20:05:58.935Z,14.47
2018-02-10T20:08:26.554Z,13.77
2018-02-10T20:10:54.867Z,13.83
2018-02-10T20:13:23.134Z,13.90
2018-02-10T20:15:50.659Z,13.97
2018-02-10T20:18:18.201Z,14.43
2018-02-10T20:20:45.778Z,13.43
2018-02-10T20:23:13.292Z,13.67
2018-02-10T20:25:40.883Z,14.40
2018-02-10T20:28:08.447Z,14.37
2018-02-10T20:30:35.939Z,13.13
2018-02-10T20:33:03.510Z,13.47
2018-02-10T20:35:33.113Z,12.97
2018-02-10T20:38:02.138Z,15.50
2018-02-10T20:40:30.238Z,13.63
2018-02-10T20:42:57.747Z,16.53
2018-02-10T20:45:25.277Z,14.23
2018-02-10T20:47:52.784Z,13.53
2018-02-10T20:50:20.606Z,12.93
2018-02-10T20:52:48.651Z,13.17
2018-02-10T20:55:16.138Z,12.53
2018-02-10T20:57:43.690Z,12.90
2018-02-10T21:00:11.525Z,13.00
2018-02-10T21:02:39.054Z,14.52
2018-02-10T21:05:06.564Z,13.10
2018-02-10T21:07:34.310Z,13.90
2018-02-10T21:10:01.797Z,13.23
2018-02-10T21:12:29.368Z,14.10
2018-02-10T21:14:56.867Z,15.10
2018-02-10T21:17:24.368Z,13.73
2018-02-10T21:19:51.915Z,12.30
2018-02-10T21:22:19.458Z,13.13
2018-02-10T21:24:46.946Z,13.30
2018-02-10T21:27:14.458Z,13.20
2018-02-10T21:29:42.491Z,12.80
2018-02-10T21:32:10.807Z,15.27
2018-02-10T21:34:38.414Z,12.67
2018-02-10T21:37:06.624Z,13.93
2018-02-10T21:39:34.147Z,15.10
2018-02-10T21:42:01.688Z,14.70
2018-02-10T21:44:29.680Z,13.37
2018-02-10T21:46:57.321Z,13.57
2018-02-10T21:49:24.924Z,13.47
2018-02-10T21:51:52.476Z,13.63
2018-02-10T21:54:20.541Z,13.33
2018-02-10T21:56:48.104Z,14.67
2018-02-10T21:59:16.396Z,14.47
2018-02-10T22:01:43.936Z,13.67
2018-02-10T22:04:12.166Z,13.77
2018-02-10T22:06:39.630Z,14.07
2018-02-10T22:09:07.090Z,13.77
2018-02-10T22:11:34.674Z,14.23
2018-02-10T22:14:02.309Z,14.27
2018-02-10T22:16:29.782Z,15.20
2018-02-10T22:18:57.294Z,14.43
2018-02-10T22:21:24.966Z,14.27
2018-02-10T22:23:52.421Z,13.87
2018-02-10T22:26:19.925Z,14.67
2018-02-10T22:28:47.665Z,15.13
2018-02-10T22:31:15.142Z,14.70
2018-02-10T22:33:42.814Z,15.20
2018-02-10T22:36:10.273Z,14.57
2018-02-10T22:38:37.731Z,14.83
2018-02-10T22:41:05.238Z,16.37
2018-02-10T22:43:32.738Z,15.13
2018-02-10T22:46:00.203Z,15.10
2018-02-10T22:48:27.942Z,14.13
2018-02-10T22:50:55.415Z,15.27
2018-02-10T22:53:22.869Z,15.17
2018-02-10T22:55:50.327Z,15.23
2018-02-10T22:58:17.795Z,14.10
2018-02-10T23:00:45.468Z,15.70
2018-02-10T23:03:12.920Z,15.73
2018-02-10T23:05:40.449Z,15.17
2018-02-10T23:08:07.917Z,15.27
2018-02-10T23:10:35.661Z,15.60
2018-02-10T23:13:03.126Z,15.97
2018-02-10T23:15:30.885Z,16.27
2018-02-10T23:17:58.354Z,16.30
2018-02-10T23:20:25.801Z,15.93
2018-02-10T23:22:53.446Z,16.53
2018-02-10T23:25:21.028Z,15.47
2018-02-10T23:27:48.497Z,16.03
2018-02-10T23:30:15.965Z,16.20
2018-02-10T23:32:43.582Z,16.53
2018-02-10T23:35:11.037Z,15.87
2018-02-10T23:37:38.529Z,15.30
2018-02-10T23:40:06.002Z,15.00
2018-02-10T23:42:33.461Z,16.57
2018-02-10T23:45:00.977Z,15.77
2018-02-10T23:47:28.629Z,14.83
2018-02-10T23:49:56.110Z,15.40
2018-02-10T23:52:23.570Z,15.23
2018-02-10T23:54:51.027Z,14.97
2018-02-10T23:57:18.513Z,14.70
2018-02-10T23:59:45.965Z,15.40
